sensor_id;sensor_type;location;lat;lon;timestamp;pressure;altitude;pressure_sealevel;temperature;humidity
74230;BME280;62589;12.568;99.958;2023-05-10T00:01:44;100733.25;;;35.76;51.82
74230;BME280;62589;12.568;99.958;2023-05-10T00:04:10;100732.47;;;35.75;51.39
74230;BME280;62589;12.568;99.958;2023-05-10T00:06:37;100724.94;;;35.72;51.52
74230;BME280;62589;12.568;99.958;2023-05-10T00:09:03;100721.28;;;35.75;51.75
74230;BME280;62589;12.568;99.958;2023-05-10T00:11:30;100722.53;;;35.74;51.81
74230;BME280;62589;12.568;99.958;2023-05-10T00:13:56;100733.25;;;35.76;51.79
74230;BME280;62589;12.568;99.958;2023-05-10T00:16:22;100740.47;;;35.77;51.71
74230;BME280;62589;12.568;99.958;2023-05-10T00:18:49;100753.22;;;35.78;51.70
74230;BME280;62589;12.568;99.958;2023-05-10T00:21:15;100754.03;;;35.78;51.85
74230;BME280;62589;12.568;99.958;2023-05-10T00:23:41;100753.22;;;35.78;51.94
74230;BME280;62589;12.568;99.958;2023-05-10T00:26:08;100760.41;;;35.79;51.75
74230;BME280;62589;12.568;99.958;2023-05-10T00:28:34;100771.56;;;35.75;51.90
74230;BME280;62589;12.568;99.958;2023-05-10T00:31:01;100802.34;;;35.68;51.83
74230;BME280;62589;12.568;99.958;2023-05-10T00:33:27;100805.16;;;35.68;51.59
74230;BME280;62589;12.568;99.958;2023-05-10T00:35:53;100822.75;;;35.58;51.70
74230;BME280;62589;12.568;99.958;2023-05-10T00:38:23;100839.63;;;35.30;48.87
74230;BME280;62589;12.568;99.958;2023-05-10T00:40:52;100830.13;;;34.81;51.27
74230;BME280;62589;12.568;99.958;2023-05-10T00:43:24;100842.88;;;34.29;50.75
74230;BME280;62589;12.568;99.958;2023-05-10T00:45:52;100869.41;;;33.84;53.09
74230;BME280;62589;12.568;99.958;2023-05-10T00:48:18;100870.00;;;33.41;56.03
74230;BME280;62589;12.568;99.958;2023-05-10T00:50:49;100864.59;;;33.11;57.20
74230;BME280;62589;12.568;99.958;2023-05-10T00:53:15;100861.09;;;32.26;59.39
74230;BME280;62589;12.568;99.958;2023-05-10T00:55:45;100874.91;;;32.19;59.61
74230;BME280;62589;12.568;99.958;2023-05-10T00:58:24;100887.34;;;31.95;58.03
74230;BME280;62589;12.568;99.958;2023-05-10T01:00:57;100877.84;;;31.96;58.10
74230;BME280;62589;12.568;99.958;2023-05-10T01:03:28;100865.94;;;31.96;57.64
74230;BME280;62589;12.568;99.958;2023-05-10T01:05:57;100868.31;;;31.97;58.09
74230;BME280;62589;12.568;99.958;2023-05-10T01:12:30;100864.69;;;32.27;60.39
74230;BME280;62589;12.568;99.958;2023-05-10T01:15:44;100878.78;;;32.48;61.55
74230;BME280;62589;12.568;99.958;2023-05-10T01:18:58;100881.56;;;32.48;62.34
74230;BME280;62589;12.568;99.958;2023-05-10T02:18:48;100931.63;;;33.47;60.88
74230;BME280;62589;12.568;99.958;2023-05-10T02:21:16;100934.41;;;33.47;60.50
74230;BME280;62589;12.568;99.958;2023-05-10T02:23:45;100930.44;;;33.48;60.26
74230;BME280;62589;12.568;99.958;2023-05-10T02:26:12;100938.81;;;33.52;60.46
74230;BME280;62589;12.568;99.958;2023-05-10T02:28:40;100949.56;;;33.53;60.74
74230;BME280;62589;12.568;99.958;2023-05-10T02:31:09;100954.75;;;33.55;60.62
74230;BME280;62589;12.568;99.958;2023-05-10T02:33:38;100955.94;;;33.54;60.31
74230;BME280;62589;12.568;99.958;2023-05-10T02:36:07;100957.53;;;33.55;59.34
74230;BME280;62589;12.568;99.958;2023-05-10T02:38:36;100955.59;;;33.59;58.97
74230;BME280;62589;12.568;99.958;2023-05-10T02:41:05;100957.56;;;33.58;58.50
74230;BME280;62589;12.568;99.958;2023-05-10T02:43:33;100950.00;;;33.55;57.56
74230;BME280;62589;12.568;99.958;2023-05-10T02:46:00;100957.16;;;33.56;58.46
74230;BME280;62589;12.568;99.958;2023-05-10T02:48:26;100961.16;;;33.59;58.11
74230;BME280;62589;12.568;99.958;2023-05-10T02:50:54;100952.38;;;33.57;57.79
74230;BME280;62589;12.568;99.958;2023-05-10T02:53:31;100937.25;;;33.54;57.72
74230;BME280;62589;12.568;99.958;2023-05-10T02:56:01;100932.91;;;33.57;57.87
74230;BME280;62589;12.568;99.958;2023-05-10T02:58:30;100936.09;;;33.59;58.16
74230;BME280;62589;12.568;99.958;2023-05-10T03:01:12;100934.50;;;33.58;57.27
74230;BME280;62589;12.568;99.958;2023-05-10T03:03:39;100928.94;;;33.58;57.79
74230;BME280;62589;12.568;99.958;2023-05-10T03:06:05;100929.72;;;33.58;57.59
74230;BME280;62589;12.568;99.958;2023-05-10T03:08:32;100928.13;;;33.57;58.12
74230;BME280;62589;12.568;99.958;2023-05-10T03:17:23;100922.22;;;33.66;58.07
74230;BME280;62589;12.568;99.958;2023-05-10T03:20:02;100909.91;;;33.67;58.28
74230;BME280;62589;12.568;99.958;2023-05-10T03:22:44;100904.69;;;33.69;58.22
74230;BME280;62589;12.568;99.958;2023-05-10T03:25:12;100908.28;;;33.69;58.03
74230;BME280;62589;12.568;99.958;2023-05-10T03:27:43;100905.88;;;33.68;58.33
74230;BME280;62589;12.568;99.958;2023-05-10T03:30:12;100914.28;;;33.71;58.65
74230;BME280;62589;12.568;99.958;2023-05-10T03:32:39;100911.91;;;33.77;59.15
74230;BME280;62589;12.568;99.958;2023-05-10T03:35:10;100901.16;;;33.75;59.38
74230;BME280;62589;12.568;99.958;2023-05-10T03:37:37;100897.66;;;33.82;59.14
74230;BME280;62589;12.568;99.958;2023-05-10T03:40:04;100902.03;;;33.87;59.42
74230;BME280;62589;12.568;99.958;2023-05-10T03:42:31;100895.28;;;33.88;59.44
74230;BME280;62589;12.568;99.958;2023-05-10T03:44:57;100892.09;;;33.93;59.40
74230;BME280;62589;12.568;99.958;2023-05-10T03:47:24;100882.56;;;33.94;59.60
74230;BME280;62589;12.568;99.958;2023-05-10T03:49:50;100884.56;;;33.97;59.61
74230;BME280;62589;12.568;99.958;2023-05-10T03:52:17;100881.41;;;34.02;59.94
74230;BME280;62589;12.568;99.958;2023-05-10T03:54:43;100879.41;;;34.06;59.28
74230;BME280;62589;12.568;99.958;2023-05-10T03:57:10;100876.22;;;34.11;59.56
74230;BME280;62589;12.568;99.958;2023-05-10T03:59:36;100861.91;;;34.12;58.84
74230;BME280;62589;12.568;99.958;2023-05-10T04:07:57;100844.81;;;34.25;59.88
74230;BME280;62589;12.568;99.958;2023-05-10T04:10:23;100837.66;;;34.27;60.15
74230;BME280;62589;12.568;99.958;2023-05-10T04:12:50;100836.47;;;34.32;60.09
74230;BME280;62589;12.568;99.958;2023-05-10T04:15:16;100829.31;;;34.34;59.78
74230;BME280;62589;12.568;99.958;2023-05-10T04:17:43;100826.13;;;34.36;59.17
74230;BME280;62589;12.568;99.958;2023-05-10T04:20:10;100822.94;;;34.37;59.80
74230;BME280;62589;12.568;99.958;2023-05-10T04:22:36;100811.81;;;34.37;59.32
74230;BME280;62589;12.568;99.958;2023-05-10T04:25:03;100800.66;;;34.41;59.36
74230;BME280;62589;12.568;99.958;2023-05-10T04:27:30;100798.66;;;34.45;60.29
74230;BME280;62589;12.568;99.958;2023-05-10T04:30:00;100792.31;;;34.48;60.12
74230;BME280;62589;12.568;99.958;2023-05-10T04:32:26;100780.34;;;34.47;58.99
74230;BME280;62589;12.568;99.958;2023-05-10T04:34:52;100779.94;;;34.53;59.22
74230;BME280;62589;12.568;99.958;2023-05-10T04:37:19;100770.78;;;34.56;58.87
74230;BME280;62589;12.568;99.958;2023-05-10T04:39:47;100768.78;;;34.60;59.29
74230;BME280;62589;12.568;99.958;2023-05-10T04:42:13;100771.16;;;34.65;58.96
74230;BME280;62589;12.568;99.958;2023-05-10T04:44:40;100771.56;;;34.67;59.43
74230;BME280;62589;12.568;99.958;2023-05-10T04:47:07;100764.78;;;34.68;59.01
74230;BME280;62589;12.568;99.958;2023-05-10T04:49:33;100758.78;;;34.73;59.06
74230;BME280;62589;12.568;99.958;2023-05-10T04:52:00;100754.00;;;34.77;58.96
74230;BME280;62589;12.568;99.958;2023-05-10T04:54:26;100750.84;;;34.78;58.45
74230;BME280;62589;12.568;99.958;2023-05-10T04:56:52;100753.63;;;34.82;58.26
74230;BME280;62589;12.568;99.958;2023-05-10T04:59:19;100744.84;;;34.87;58.57
74230;BME280;62589;12.568;99.958;2023-05-10T05:04:20;100740.81;;;34.95;57.75
74230;BME280;62589;12.568;99.958;2023-05-10T05:06:49;100740.03;;;34.98;57.66
74230;BME280;62589;12.568;99.958;2023-05-10T05:09:16;100730.44;;;35.03;57.58
74230;BME280;62589;12.568;99.958;2023-05-10T05:11:42;100719.66;;;35.08;57.50
74230;BME280;62589;12.568;99.958;2023-05-10T05:14:11;100715.63;;;35.13;57.89
74230;BME280;62589;12.568;99.958;2023-05-10T05:16:38;100717.63;;;35.20;57.45
74230;BME280;62589;12.568;99.958;2023-05-10T05:19:04;100714.41;;;35.25;57.54
74230;BME280;62589;12.568;99.958;2023-05-10T05:35:18;100681.13;;;35.59;57.67
74230;BME280;62589;12.568;99.958;2023-05-10T05:37:45;100679.84;;;35.74;56.95
74230;BME280;62589;12.568;99.958;2023-05-10T05:40:15;100676.59;;;35.83;56.00
74230;BME280;62589;12.568;99.958;2023-05-10T05:42:41;100666.13;;;35.94;54.89
74230;BME280;62589;12.568;99.958;2023-05-10T05:45:08;100668.44;;;36.02;55.14
74230;BME280;62589;12.568;99.958;2023-05-10T05:47:39;100666.38;;;36.10;54.75
74230;BME280;62589;12.568;99.958;2023-05-10T05:50:06;100661.16;;;36.15;53.70
74230;BME280;62589;12.568;99.958;2023-05-10T05:52:32;100659.47;;;36.22;52.58
74230;BME280;62589;12.568;99.958;2023-05-10T05:54:59;100653.81;;;36.32;52.75
74230;BME280;62589;12.568;99.958;2023-05-10T05:57:25;100642.53;;;36.39;52.68
74230;BME280;62589;12.568;99.958;2023-05-10T05:59:52;100634.50;;;36.45;52.65
74230;BME280;62589;12.568;99.958;2023-05-10T06:02:18;100637.63;;;36.51;52.35
74230;BME280;62589;12.568;99.958;2023-05-10T06:04:45;100639.50;;;36.61;52.08
74230;BME280;62589;12.568;99.958;2023-05-10T06:07:12;100635.91;;;36.60;51.82
74230;BME280;62589;12.568;99.958;2023-05-10T06:09:38;100631.84;;;36.65;51.71
74230;BME280;62589;12.568;99.958;2023-05-10T06:12:05;100632.19;;;36.74;51.44
74230;BME280;62589;12.568;99.958;2023-05-10T06:14:31;100626.19;;;36.75;51.21
74230;BME280;62589;12.568;99.958;2023-05-10T06:16:57;100617.28;;;36.80;49.98
74230;BME280;62589;12.568;99.958;2023-05-10T06:19:25;100609.59;;;36.88;50.00
74230;BME280;62589;12.568;99.958;2023-05-10T06:21:52;100609.53;;;36.95;49.54
74230;BME280;62589;12.568;99.958;2023-05-10T06:24:18;100597.13;;;36.96;49.24
74230;BME280;62589;12.568;99.958;2023-05-10T06:26:44;100604.19;;;37.04;49.19
74230;BME280;62589;12.568;99.958;2023-05-10T06:29:11;100596.09;;;37.10;48.95
74230;BME280;62589;12.568;99.958;2023-05-10T06:31:37;100583.28;;;37.12;48.76
74230;BME280;62589;12.568;99.958;2023-05-10T06:34:04;100571.28;;;37.12;47.79
74230;BME280;62589;12.568;99.958;2023-05-10T06:36:30;100571.63;;;37.17;47.91
74230;BME280;62589;12.568;99.958;2023-05-10T06:38:56;100579.53;;;37.23;47.38
74230;BME280;62589;12.568;99.958;2023-05-10T06:41:23;100571.09;;;37.26;47.64
74230;BME280;62589;12.568;99.958;2023-05-10T06:43:49;100567.44;;;37.29;47.95
74230;BME280;62589;12.568;99.958;2023-05-10T06:46:15;100571.78;;;37.34;49.50
74230;BME280;62589;12.568;99.958;2023-05-10T06:48:42;100570.09;;;37.40;50.48
74230;BME280;62589;12.568;99.958;2023-05-10T06:51:08;100568.41;;;37.42;49.88
74230;BME280;62589;12.568;99.958;2023-05-10T06:53:34;100568.00;;;37.44;50.06
74230;BME280;62589;12.568;99.958;2023-05-10T06:56:01;100566.34;;;37.46;49.29
74230;BME280;62589;12.568;99.958;2023-05-10T06:58:28;100567.28;;;37.40;49.17
74230;BME280;62589;12.568;99.958;2023-05-10T07:01:02;100569.34;;;37.36;48.91
74230;BME280;62589;12.568;99.958;2023-05-10T07:03:28;100559.00;;;37.33;49.55
74230;BME280;62589;12.568;99.958;2023-05-10T07:06:01;100567.03;;;37.31;49.10
74230;BME280;62589;12.568;99.958;2023-05-10T07:08:30;100560.25;;;37.28;49.58
74230;BME280;62589;12.568;99.958;2023-05-10T07:11:06;100541.47;;;37.29;49.18
74230;BME280;62589;12.568;99.958;2023-05-10T07:13:38;100537.06;;;37.28;49.24
74230;BME280;62589;12.568;99.958;2023-05-10T07:16:07;100538.22;;;37.30;49.63
74230;BME280;62589;12.568;99.958;2023-05-10T07:18:33;100535.06;;;37.28;49.42
74230;BME280;62589;12.568;99.958;2023-05-10T07:21:00;100527.50;;;37.25;49.03
74230;BME280;62589;12.568;99.958;2023-05-10T07:23:26;100532.31;;;37.25;48.90
74230;BME280;62589;12.568;99.958;2023-05-10T07:25:52;100523.91;;;37.25;49.27
74230;BME280;62589;12.568;99.958;2023-05-10T07:28:19;100519.13;;;37.25;48.80
74230;BME280;62589;12.568;99.958;2023-05-10T07:30:46;100517.53;;;37.24;49.20
74230;BME280;62589;12.568;99.958;2023-05-10T07:33:13;100517.47;;;37.28;48.81
74230;BME280;62589;12.568;99.958;2023-05-10T07:35:40;100508.72;;;37.26;48.76
74230;BME280;62589;12.568;99.958;2023-05-10T07:38:07;100505.06;;;37.29;48.47
74230;BME280;62589;12.568;99.958;2023-05-10T07:40:33;100500.69;;;37.28;47.39
74230;BME280;62589;12.568;99.958;2023-05-10T07:42:59;100488.63;;;37.31;47.62
74230;BME280;62589;12.568;99.958;2023-05-10T07:45:27;100488.25;;;37.29;47.77
74230;BME280;62589;12.568;99.958;2023-05-10T07:47:54;100479.13;;;37.25;47.03
74230;BME280;62589;12.568;99.958;2023-05-10T07:50:20;100474.31;;;37.25;46.44
74230;BME280;62589;12.568;99.958;2023-05-10T07:52:47;100475.53;;;37.24;46.98
74230;BME280;62589;12.568;99.958;2023-05-10T07:55:14;100471.94;;;37.24;46.76
74230;BME280;62589;12.568;99.958;2023-05-10T07:57:41;100472.78;;;37.21;46.15
74230;BME280;62589;12.568;99.958;2023-05-10T08:00:08;100464.06;;;37.19;46.78
74230;BME280;62589;12.568;99.958;2023-05-10T08:02:35;100461.25;;;37.19;47.25
74230;BME280;62589;12.568;99.958;2023-05-10T08:05:02;100453.69;;;37.15;46.92
74230;BME280;62589;12.568;99.958;2023-05-10T08:07:28;100445.34;;;37.12;46.66
74230;BME280;62589;12.568;99.958;2023-05-10T08:09:56;100446.56;;;37.11;47.12
74230;BME280;62589;12.568;99.958;2023-05-10T08:12:22;100435.84;;;37.06;45.95
74230;BME280;62589;12.568;99.958;2023-05-10T08:14:48;100426.66;;;37.05;46.15
74230;BME280;62589;12.568;99.958;2023-05-10T08:17:15;100426.66;;;37.05;46.85
74230;BME280;62589;12.568;99.958;2023-05-10T08:19:41;100432.66;;;37.04;46.90
74230;BME280;62589;12.568;99.958;2023-05-10T08:22:08;100417.50;;;37.01;46.74
74230;BME280;62589;12.568;99.958;2023-05-10T08:24:34;100427.91;;;37.01;46.86
74230;BME280;62589;12.568;99.958;2023-05-10T08:27:05;100421.53;;;37.00;47.23
74230;BME280;62589;12.568;99.958;2023-05-10T08:29:31;100420.72;;;37.00;47.67
74230;BME280;62589;12.568;99.958;2023-05-10T08:31:58;100435.19;;;36.98;47.65
74230;BME280;62589;12.568;99.958;2023-05-10T08:34:24;100435.53;;;37.00;47.42
74230;BME280;62589;12.568;99.958;2023-05-10T08:36:51;100436.41;;;36.97;47.17
74230;BME280;62589;12.568;99.958;2023-05-10T08:39:17;100431.22;;;36.96;46.92
74230;BME280;62589;12.568;99.958;2023-05-10T08:41:44;100433.66;;;36.94;47.04
74230;BME280;62589;12.568;99.958;2023-05-10T08:44:13;100418.06;;;36.93;47.08
74230;BME280;62589;12.568;99.958;2023-05-10T08:46:41;100409.38;;;36.87;46.95
74230;BME280;62589;12.568;99.958;2023-05-10T08:49:13;100405.34;;;36.88;47.08
74230;BME280;62589;12.568;99.958;2023-05-10T08:51:49;100407.00;;;36.86;47.18
74230;BME280;62589;12.568;99.958;2023-05-10T08:54:16;100416.53;;;36.88;46.76
74230;BME280;62589;12.568;99.958;2023-05-10T08:56:43;100411.00;;;36.85;47.13
74230;BME280;62589;12.568;99.958;2023-05-10T08:59:10;100413.38;;;36.86;47.01
74230;BME280;62589;12.568;99.958;2023-05-10T09:01:38;100409.00;;;36.85;47.26
74230;BME280;62589;12.568;99.958;2023-05-10T09:04:05;100403.03;;;36.83;47.18
74230;BME280;62589;12.568;99.958;2023-05-10T09:06:32;100399.03;;;36.84;47.12
74230;BME280;62589;12.568;99.958;2023-05-10T09:08:59;100397.44;;;36.83;47.63
74230;BME280;62589;12.568;99.958;2023-05-10T09:11:26;100396.69;;;36.79;47.58
74230;BME280;62589;12.568;99.958;2023-05-10T09:13:55;100399.94;;;36.77;47.15
74230;BME280;62589;12.568;99.958;2023-05-10T09:16:22;100407.19;;;36.75;47.04
74230;BME280;62589;12.568;99.958;2023-05-10T09:18:49;100396.84;;;36.72;47.23
74230;BME280;62589;12.568;99.958;2023-05-10T09:21:16;100393.63;;;36.70;47.54
74230;BME280;62589;12.568;99.958;2023-05-10T09:23:46;100396.50;;;36.66;47.39
74230;BME280;62589;12.568;99.958;2023-05-10T09:26:15;100387.69;;;36.68;47.78
74230;BME280;62589;12.568;99.958;2023-05-10T09:28:53;100396.50;;;36.66;47.80
74230;BME280;62589;12.568;99.958;2023-05-10T09:31:21;100390.66;;;36.57;48.26
74230;BME280;62589;12.568;99.958;2023-05-10T09:33:48;100388.56;;;36.61;47.35
74230;BME280;62589;12.568;99.958;2023-05-10T09:36:15;100390.69;;;36.54;47.61
74230;BME280;62589;12.568;99.958;2023-05-10T09:38:49;100388.34;;;36.52;47.79
74230;BME280;62589;12.568;99.958;2023-05-10T09:41:23;100381.94;;;36.52;47.37
74230;BME280;62589;12.568;99.958;2023-05-10T09:43:55;100390.75;;;36.50;47.56
74230;BME280;62589;12.568;99.958;2023-05-10T09:46:22;100390.75;;;36.50;47.12
74230;BME280;62589;12.568;99.958;2023-05-10T09:48:48;100390.81;;;36.46;47.52
74230;BME280;62589;12.568;99.958;2023-05-10T09:51:22;100386.06;;;36.43;47.64
74230;BME280;62589;12.568;99.958;2023-05-10T09:54:08;100385.69;;;36.41;47.45
74230;BME280;62589;12.568;99.958;2023-05-10T09:56:36;100373.28;;;36.42;47.43
74230;BME280;62589;12.568;99.958;2023-05-10T09:59:05;100378.50;;;36.40;48.02
74230;BME280;62589;12.568;99.958;2023-05-10T10:01:31;100384.09;;;36.40;48.70
74230;BME280;62589;12.568;99.958;2023-05-10T10:03:58;100381.31;;;36.40;48.71
74230;BME280;62589;12.568;99.958;2023-05-10T10:06:24;100376.56;;;36.37;48.51
74230;BME280;62589;12.568;99.958;2023-05-10T10:08:53;100387.00;;;36.33;47.45
74230;BME280;62589;12.568;99.958;2023-05-10T10:11:20;100399.78;;;36.34;47.66
74230;BME280;62589;12.568;99.958;2023-05-10T10:13:46;100398.66;;;36.28;47.54
74230;BME280;62589;12.568;99.958;2023-05-10T10:16:13;100389.06;;;36.29;47.17
74230;BME280;62589;12.568;99.958;2023-05-10T10:18:39;100389.72;;;36.10;47.90
74230;BME280;62589;12.568;99.958;2023-05-10T10:21:07;100376.91;;;36.12;48.32
74230;BME280;62589;12.568;99.958;2023-05-10T10:23:37;100391.28;;;36.11;48.16
74230;BME280;62589;12.568;99.958;2023-05-10T10:26:04;100400.50;;;36.08;48.18
74230;BME280;62589;12.568;99.958;2023-05-10T10:31:45;100416.88;;;36.09;48.31
74230;BME280;62589;12.568;99.958;2023-05-10T10:34:31;100432.00;;;36.12;48.06
74230;BME280;62589;12.568;99.958;2023-05-10T10:37:04;100430.13;;;36.02;48.48
74230;BME280;62589;12.568;99.958;2023-05-10T10:39:31;100423.69;;;36.05;47.96
74230;BME280;62589;12.568;99.958;2023-05-10T10:41:58;100438.47;;;36.05;47.93
74230;BME280;62589;12.568;99.958;2023-05-10T10:44:36;100436.97;;;35.97;47.92
74230;BME280;62589;12.568;99.958;2023-05-10T10:50:05;100435.34;;;36.00;47.09
74230;BME280;62589;12.568;99.958;2023-05-10T10:52:35;100452.09;;;36.00;46.73
74230;BME280;62589;12.568;99.958;2023-05-10T10:55:14;100464.97;;;35.94;47.04
74230;BME280;62589;12.568;99.958;2023-05-10T10:57:52;100464.56;;;35.95;46.57
74230;BME280;62589;12.568;99.958;2023-05-10T11:00:31;100466.97;;;35.93;46.52
74230;BME280;62589;12.568;99.958;2023-05-10T11:03:14;100478.06;;;35.97;46.55
74230;BME280;62589;12.568;99.958;2023-05-10T11:05:48;100472.97;;;35.92;46.90
74230;BME280;62589;12.568;99.958;2023-05-10T11:08:31;100483.81;;;35.86;47.09
74230;BME280;62589;12.568;99.958;2023-05-10T11:11:05;100488.63;;;35.82;44.70
74230;BME280;62589;12.568;99.958;2023-05-10T11:13:41;100496.22;;;35.81;45.21
74230;BME280;62589;12.568;99.958;2023-05-10T11:16:22;100498.25;;;35.77;45.64
74230;BME280;62589;12.568;99.958;2023-05-10T11:19:04;100491.88;;;35.77;46.33
74230;BME280;62589;12.568;99.958;2023-05-10T11:21:31;100501.53;;;35.65;46.99
74230;BME280;62589;12.568;99.958;2023-05-10T11:23:59;100503.41;;;35.75;47.31
74230;BME280;62589;12.568;99.958;2023-05-10T11:26:32;100506.22;;;35.75;47.35
74230;BME280;62589;12.568;99.958;2023-05-10T11:29:00;100511.09;;;35.68;47.99
74230;BME280;62589;12.568;99.958;2023-05-10T11:31:28;100509.88;;;35.72;47.78
74230;BME280;62589;12.568;99.958;2023-05-10T11:33:57;100508.31;;;35.68;47.93
74230;BME280;62589;12.568;99.958;2023-05-10T11:36:27;100523.84;;;35.69;48.45
74230;BME280;62589;12.568;99.958;2023-05-10T11:38:56;100521.44;;;35.71;48.60
74230;BME280;62589;12.568;99.958;2023-05-10T11:41:24;100527.44;;;35.69;48.47
74230;BME280;62589;12.568;99.958;2023-05-10T11:43:53;100527.81;;;35.71;48.27
74230;BME280;62589;12.568;99.958;2023-05-10T11:46:22;100529.84;;;35.67;47.94
74230;BME280;62589;12.568;99.958;2023-05-10T11:48:50;100529.13;;;35.60;48.23
74230;BME280;62589;12.568;99.958;2023-05-10T11:51:21;100523.56;;;35.56;48.50
74230;BME280;62589;12.568;99.958;2023-05-10T11:53:52;100523.13;;;35.61;48.49
74230;BME280;62589;12.568;99.958;2023-05-10T11:56:18;100526.75;;;35.58;48.71
74230;BME280;62589;12.568;99.958;2023-05-10T11:58:53;100520.34;;;35.58;48.90
74230;BME280;62589;12.568;99.958;2023-05-10T12:01:22;100520.34;;;35.61;49.32
74230;BME280;62589;12.568;99.958;2023-05-10T12:03:50;100514.38;;;35.59;49.29
74230;BME280;62589;12.568;99.958;2023-05-10T12:06:19;100518.34;;;35.62;49.61
74230;BME280;62589;12.568;99.958;2023-05-10T12:08:47;100518.75;;;35.60;49.89
74230;BME280;62589;12.568;99.958;2023-05-10T12:11:14;100514.75;;;35.61;49.74
74230;BME280;62589;12.568;99.958;2023-05-10T12:13:44;100523.50;;;35.63;49.81
74230;BME280;62589;12.568;99.958;2023-05-10T12:16:19;100530.28;;;35.62;49.67
74230;BME280;62589;12.568;99.958;2023-05-10T12:18:50;100532.28;;;35.65;49.48
74230;BME280;62589;12.568;99.958;2023-05-10T12:21:18;100542.66;;;35.61;49.51
74230;BME280;62589;12.568;99.958;2023-05-10T12:23:46;100539.88;;;35.61;49.46
74230;BME280;62589;12.568;99.958;2023-05-10T12:26:13;100545.88;;;35.60;49.50
74230;BME280;62589;12.568;99.958;2023-05-10T12:28:40;100552.28;;;35.57;49.80
74230;BME280;62589;12.568;99.958;2023-05-10T12:31:07;100564.25;;;35.57;49.54
74230;BME280;62589;12.568;99.958;2023-05-10T12:33:41;100563.91;;;35.52;50.38
74230;BME280;62589;12.568;99.958;2023-05-10T12:36:09;100575.03;;;35.55;49.76
74230;BME280;62589;12.568;99.958;2023-05-10T12:38:38;100577.41;;;35.57;50.11
74230;BME280;62589;12.568;99.958;2023-05-10T12:41:07;100581.84;;;35.54;50.10
74230;BME280;62589;12.568;99.958;2023-05-10T12:43:34;100577.09;;;35.51;49.82
74230;BME280;62589;12.568;99.958;2023-05-10T12:46:12;100573.09;;;35.48;49.83
74230;BME280;62589;12.568;99.958;2023-05-10T12:48:41;100586.69;;;35.46;50.17
74230;BME280;62589;12.568;99.958;2023-05-10T12:51:08;100586.69;;;35.46;50.14
74230;BME280;62589;12.568;99.958;2023-05-10T12:53:41;100588.69;;;35.46;49.98
74230;BME280;62589;12.568;99.958;2023-05-10T12:56:07;100587.47;;;35.47;50.24
74230;BME280;62589;12.568;99.958;2023-05-10T12:58:34;100584.31;;;35.45;50.35
74230;BME280;62589;12.568;99.958;2023-05-10T13:01:01;100593.88;;;35.44;50.38
74230;BME280;62589;12.568;99.958;2023-05-10T13:03:27;100595.50;;;35.41;50.50
74230;BME280;62589;12.568;99.958;2023-05-10T13:05:54;100593.09;;;35.40;50.65
74230;BME280;62589;12.568;99.958;2023-05-10T13:08:20;100601.09;;;35.38;50.65
74230;BME280;62589;12.568;99.958;2023-05-10T13:10:47;100608.66;;;35.41;50.63
74230;BME280;62589;12.568;99.958;2023-05-10T13:13:13;100614.25;;;35.41;50.97
74230;BME280;62589;12.568;99.958;2023-05-10T13:15:40;100625.41;;;35.41;50.89
74230;BME280;62589;12.568;99.958;2023-05-10T13:18:06;100626.19;;;35.41;50.95
74230;BME280;62589;12.568;99.958;2023-05-10T13:20:33;100638.53;;;35.44;51.09
74230;BME280;62589;12.568;99.958;2023-05-10T13:23:00;100638.16;;;35.42;50.97
74230;BME280;62589;12.568;99.958;2023-05-10T13:25:26;100645.34;;;35.43;51.12
74230;BME280;62589;12.568;99.958;2023-05-10T13:27:53;100647.72;;;35.44;51.42
74230;BME280;62589;12.568;99.958;2023-05-10T13:30:19;100644.13;;;35.44;51.25
74230;BME280;62589;12.568;99.958;2023-05-10T13:32:46;100641.75;;;35.42;51.34
74230;BME280;62589;12.568;99.958;2023-05-10T13:35:12;100648.13;;;35.43;51.49
74230;BME280;62589;12.568;99.958;2023-05-10T13:37:39;100647.72;;;35.44;51.54
74230;BME280;62589;12.568;99.958;2023-05-10T13:40:06;100648.13;;;35.43;51.63
74230;BME280;62589;12.568;99.958;2023-05-10T13:42:32;100654.13;;;35.41;51.35
74230;BME280;62589;12.568;99.958;2023-05-10T13:45:00;100664.88;;;35.43;51.58
74230;BME280;62589;12.568;99.958;2023-05-10T13:47:27;100668.88;;;35.42;51.44
74230;BME280;62589;12.568;99.958;2023-05-10T13:49:54;100688.81;;;35.44;51.36
74230;BME280;62589;12.568;99.958;2023-05-10T13:52:20;100685.22;;;35.43;51.38
74230;BME280;62589;12.568;99.958;2023-05-10T13:54:47;100692.78;;;35.43;51.55
74230;BME280;62589;12.568;99.958;2023-05-10T13:57:13;100698.38;;;35.43;51.53
74230;BME280;62589;12.568;99.958;2023-05-10T13:59:40;100697.59;;;35.42;51.38
74230;BME280;62589;12.568;99.958;2023-05-10T14:02:06;100701.56;;;35.41;51.27
74230;BME280;62589;12.568;99.958;2023-05-10T14:04:32;100711.13;;;35.44;51.30
74230;BME280;62589;12.568;99.958;2023-05-10T14:07:01;100715.94;;;35.43;51.10
74230;BME280;62589;12.568;99.958;2023-05-10T14:09:27;100723.09;;;35.44;51.57
74230;BME280;62589;12.568;99.958;2023-05-10T14:11:54;100735.06;;;35.41;51.64
74230;BME280;62589;12.568;99.958;2023-05-10T14:14:21;100740.66;;;35.41;51.16
74230;BME280;62589;12.568;99.958;2023-05-10T14:16:48;100747.06;;;35.38;51.38
74230;BME280;62589;12.568;99.958;2023-05-10T14:19:14;100750.66;;;35.39;51.35
74230;BME280;62589;12.568;99.958;2023-05-10T14:21:40;100755.84;;;35.37;51.36
74230;BME280;62589;12.568;99.958;2023-05-10T14:24:07;100754.63;;;35.38;51.19